Feira de Santana, Brazil
Current Conditions -  °F | °C
As of 9:00 AM on Sunday 21 Dec 2014 (Local Time) from SBSV Reporting Station
Scattered Clouds Scattered Clouds  
Wind Chill: 82°   Ceiling: Unl
Heat Index: 87°   Visibility: 6mi
Dew Point: 72°   Wind: 12mph
Humidity: 70%   Direction: 100°E
Pressure: 30"   Gusts: NA
Location:  12.25°S, 38.97°W
Report Text: SBSV 211200Z 10010KT 9999 SCT017 SCT070 28/22 Q1016
Loading
Personal Weather Stations






























Interactive Weather Map New forecast layout! Learn more

10-Day Weather Forecast

Advertisements
Track Severe Weather on mobile